createdAt,value
2022-08-23T00:01:18.812Z,93.74
2022-08-23T00:03:47.840Z,93.42
2022-08-23T00:06:14.451Z,91.52
2022-08-23T00:08:47.428Z,90.08
2022-08-23T00:11:26.815Z,89.33
2022-08-23T00:13:53.502Z,89.89
2022-08-23T00:16:20.180Z,89.91
2022-08-23T00:18:49.242Z,89.19
2022-08-23T00:21:16.693Z,91.30
2022-08-23T00:23:43.264Z,92.77
2022-08-23T00:26:10.066Z,91.90
2022-08-23T00:28:36.537Z,91.76
2022-08-23T00:31:03.623Z,94.07
2022-08-23T00:33:30.066Z,94.67
2022-08-23T00:35:56.537Z,94.67
2022-08-23T00:38:34.169Z,94.98
2022-08-23T00:41:01.972Z,95.24
2022-08-23T00:43:53.231Z,96.07
2022-08-23T00:46:59.252Z,96.52
2022-08-23T00:49:26.196Z,96.95
2022-08-23T00:52:10.814Z,97.56
2022-08-23T00:54:41.310Z,97.02
2022-08-23T00:57:15.707Z,96.79
2022-08-23T00:59:42.197Z,96.26
2022-08-23T01:02:09.476Z,96.75
2022-08-23T01:04:41.530Z,97.24
2022-08-23T01:07:31.275Z,97.24
2022-08-23T01:10:05.135Z,97.79
2022-08-23T01:12:42.989Z,97.63
2022-08-23T01:15:20.967Z,96.97
2022-08-23T01:17:56.901Z,96.54
2022-08-23T01:20:26.955Z,96.22
2022-08-23T01:23:06.371Z,95.31
2022-08-23T01:25:34.210Z,95.35
2022-08-23T01:28:01.298Z,96.22
2022-08-23T01:30:32.543Z,96.95
2022-08-23T01:33:01.990Z,97.13
2022-08-23T01:35:42.167Z,97.24
2022-08-23T01:38:10.226Z,96.79
2022-08-23T01:40:37.780Z,96.81
2022-08-23T01:43:06.401Z,96.77
2022-08-23T01:45:33.562Z,97.40
2022-08-23T01:48:00.925Z,96.91
2022-08-23T01:50:28.832Z,97.97
2022-08-23T01:52:55.623Z,98.21
2022-08-23T01:55:23.468Z,98.75
2022-08-23T01:57:55.024Z,99.51
2022-08-23T02:00:23.099Z,100.00
2022-08-23T02:02:49.597Z,99.22
2022-08-23T02:05:18.848Z,98.31
2022-08-23T02:07:46.819Z,98.33
2022-08-23T02:10:13.464Z,99.47
2022-08-23T02:12:40.227Z,100.00
2022-08-23T02:15:14.713Z,100.00
2022-08-23T02:17:44.335Z,100.00
2022-08-23T02:20:12.347Z,100.00
2022-08-23T02:22:39.532Z,100.00
2022-08-23T02:25:07.400Z,99.87
2022-08-23T02:27:34.576Z,98.52
2022-08-23T02:30:02.045Z,98.83
2022-08-23T02:32:29.284Z,98.53
2022-08-23T02:35:04.616Z,98.40
2022-08-23T02:37:32.348Z,97.94
2022-08-23T02:39:58.944Z,97.29
2022-08-23T02:42:25.503Z,98.17
2022-08-23T02:44:52.100Z,97.61
2022-08-23T02:47:20.137Z,97.48
2022-08-23T02:49:59.706Z,97.56
2022-08-23T02:52:26.204Z,97.94
2022-08-23T02:54:53.299Z,97.76
2022-08-23T02:57:24.864Z,96.92
2022-08-23T02:59:54.660Z,96.72
2022-08-23T03:02:21.638Z,96.21
2022-08-23T03:04:48.409Z,96.71
2022-08-23T03:07:14.979Z,96.42
2022-08-23T03:09:41.479Z,97.38
2022-08-23T03:12:08.006Z,97.32
2022-08-23T03:14:38.009Z,97.43
2022-08-23T03:17:06.023Z,98.09
2022-08-23T03:19:32.531Z,98.97
2022-08-23T03:22:00.810Z,100.00
2022-08-23T03:24:29.299Z,100.00
2022-08-23T03:26:55.903Z,100.00
2022-08-23T03:29:22.665Z,100.00
2022-08-23T03:31:58.859Z,100.00
2022-08-23T03:34:26.279Z,100.00
2022-08-23T03:36:53.573Z,100.00
2022-08-23T03:39:20.178Z,100.00
2022-08-23T03:41:46.699Z,100.00
2022-08-23T03:44:13.237Z,99.92
2022-08-23T03:46:42.422Z,99.19
2022-08-23T03:49:09.193Z,98.79
2022-08-23T03:51:50.984Z,99.77
2022-08-23T03:54:17.528Z,99.36
2022-08-23T03:56:53.007Z,98.50
2022-08-23T03:59:20.027Z,99.42
2022-08-23T04:01:46.937Z,100.00
2022-08-23T04:04:13.964Z,100.00
2022-08-23T04:06:52.565Z,100.00
2022-08-23T04:09:19.046Z,100.00
2022-08-23T04:11:46.654Z,100.00
2022-08-23T04:14:13.247Z,100.00
2022-08-23T04:16:40.366Z,100.00
2022-08-23T04:19:13.068Z,100.00
2022-08-23T04:21:50.409Z,100.00
2022-08-23T04:24:18.940Z,100.00
2022-08-23T04:26:45.723Z,100.00
2022-08-23T04:29:33.669Z,100.00
2022-08-23T04:32:05.556Z,100.00
2022-08-23T04:34:36.190Z,100.00
2022-08-23T04:37:02.687Z,100.00
2022-08-23T04:39:29.318Z,100.00
2022-08-23T04:42:15.304Z,100.00
2022-08-23T04:44:42.682Z,100.00
2022-08-23T04:47:09.186Z,100.00
2022-08-23T04:49:35.867Z,100.00
2022-08-23T04:52:02.648Z,100.00
2022-08-23T04:54:31.541Z,100.00
2022-08-23T04:57:18.242Z,100.00
2022-08-23T04:59:47.247Z,100.00
2022-08-23T05:02:15.050Z,100.00
2022-08-23T05:04:42.481Z,100.00
2022-08-23T05:07:09.499Z,100.00
2022-08-23T05:09:36.459Z,100.00
2022-08-23T05:12:03.506Z,100.00
2022-08-23T05:14:31.474Z,100.00
2022-08-23T05:16:58.131Z,100.00
2022-08-23T05:19:25.630Z,100.00
2022-08-23T05:21:56.455Z,100.00
2022-08-23T05:24:27.403Z,100.00
2022-08-23T05:26:53.869Z,100.00
2022-08-23T05:29:21.457Z,100.00
2022-08-23T05:31:50.301Z,100.00
2022-08-23T05:34:22.782Z,100.00
2022-08-23T05:36:56.251Z,100.00
2022-08-23T05:39:36.323Z,100.00
2022-08-23T05:42:06.964Z,100.00
2022-08-23T05:44:36.091Z,100.00
2022-08-23T05:47:11.083Z,100.00
2022-08-23T05:49:46.121Z,100.00
2022-08-23T05:52:13.627Z,100.00
2022-08-23T05:54:42.515Z,100.00
2022-08-23T05:57:26.290Z,100.00
2022-08-23T05:59:52.745Z,100.00
2022-08-23T06:02:19.284Z,100.00
2022-08-23T06:04:45.778Z,100.00
2022-08-23T06:07:12.299Z,100.00
2022-08-23T06:09:39.243Z,100.00
2022-08-23T06:12:05.768Z,100.00
2022-08-23T06:14:32.329Z,100.00
2022-08-23T06:16:58.989Z,100.00
2022-08-23T06:19:27.164Z,100.00
2022-08-23T06:22:02.926Z,100.00
2022-08-23T06:24:33.609Z,100.00
2022-08-23T06:27:14.488Z,100.00
2022-08-23T06:29:42.160Z,100.00
2022-08-23T06:32:27.240Z,100.00
2022-08-23T06:35:38.050Z,100.00
2022-08-23T06:38:07.182Z,100.00
2022-08-23T06:40:49.209Z,100.00
2022-08-23T06:43:25.575Z,100.00
2022-08-23T06:46:29.463Z,100.00
2022-08-23T06:48:57.799Z,100.00
2022-08-23T06:51:29.073Z,100.00
2022-08-23T06:54:05.623Z,100.00
2022-08-23T06:56:43.667Z,100.00
2022-08-23T06:59:17.139Z,100.00
2022-08-23T07:02:08.636Z,100.00
2022-08-23T07:04:55.722Z,100.00
2022-08-23T07:07:39.730Z,100.00
2022-08-23T07:10:11.181Z,100.00
2022-08-23T07:12:42.121Z,99.91
2022-08-23T07:15:11.525Z,99.71
2022-08-23T07:17:38.569Z,99.70
2022-08-23T07:20:05.672Z,99.12
2022-08-23T07:22:34.763Z,99.21
2022-08-23T07:25:02.858Z,98.56
2022-08-23T07:27:29.767Z,98.25
2022-08-23T07:30:02.585Z,98.22
2022-08-23T07:32:29.687Z,98.11
2022-08-23T07:34:57.771Z,96.85
2022-08-23T07:37:24.626Z,96.04
2022-08-23T07:39:51.424Z,95.33
2022-08-23T07:42:24.229Z,94.78
2022-08-23T07:44:54.169Z,94.47
2022-08-23T07:47:22.673Z,93.63
2022-08-23T07:49:49.345Z,93.69
2022-08-23T07:52:15.762Z,93.64
2022-08-23T07:54:48.396Z,92.25
2022-08-23T07:57:27.588Z,92.82
2022-08-23T08:00:13.106Z,90.35
2022-08-23T08:02:44.166Z,90.11
2022-08-23T08:05:21.783Z,89.46
2022-08-23T08:07:49.195Z,90.41
2022-08-23T08:10:15.703Z,89.85
2022-08-23T08:12:42.170Z,88.91
2022-08-23T08:15:16.428Z,88.46
2022-08-23T08:17:47.820Z,88.22
2022-08-23T08:20:19.931Z,87.01
2022-08-23T08:23:05.620Z,86.17
2022-08-23T08:26:08.018Z,84.68
2022-08-23T08:28:36.393Z,84.22
2022-08-23T08:31:04.062Z,84.02
2022-08-23T08:33:34.339Z,83.95
2022-08-23T08:36:04.157Z,83.80
2022-08-23T08:38:32.416Z,83.27
2022-08-23T08:41:17.674Z,83.82
2022-08-23T08:44:08.290Z,81.44
2022-08-23T08:46:51.535Z,81.72
2022-08-23T08:49:47.331Z,82.54
2022-08-23T08:52:32.223Z,81.88
2022-08-23T08:55:07.976Z,80.87
2022-08-23T08:57:45.230Z,80.70
2022-08-23T09:00:16.985Z,79.75
2022-08-23T09:02:45.211Z,80.98
2022-08-23T09:05:22.594Z,78.38
2022-08-23T09:08:03.150Z,79.17
2022-08-23T09:10:50.832Z,79.83
2022-08-23T09:13:46.273Z,78.39
2022-08-23T09:16:29.371Z,77.57
2022-08-23T09:18:56.964Z,77.21
2022-08-23T09:21:24.066Z,76.35
2022-08-23T09:24:00.383Z,74.85
2022-08-23T09:26:36.549Z,73.12
2022-08-23T09:29:17.757Z,71.24
2022-08-23T09:32:26.026Z,72.11
2022-08-23T09:35:06.207Z,73.77
2022-08-23T09:37:48.344Z,73.01
2022-08-23T09:40:25.578Z,72.14
2022-08-23T09:43:08.422Z,70.56
2022-08-23T09:45:38.515Z,71.00
2022-08-23T09:48:13.560Z,70.38
2022-08-23T09:50:54.618Z,70.88
2022-08-23T09:53:29.700Z,70.71
2022-08-23T09:56:09.351Z,69.80
2022-08-23T09:58:38.722Z,69.22
2022-08-23T10:01:21.159Z,69.36
2022-08-23T10:04:12.625Z,67.89
2022-08-23T10:06:41.856Z,67.84
2022-08-23T10:09:21.211Z,66.44
2022-08-23T10:11:48.556Z,66.17
2022-08-23T10:14:17.884Z,65.61
2022-08-23T10:17:02.974Z,64.20
2022-08-23T10:19:49.680Z,64.04
2022-08-23T10:22:26.797Z,63.10
2022-08-23T10:25:30.356Z,63.16
2022-08-23T10:28:48.617Z,64.19
2022-08-23T10:31:33.171Z,60.35
2022-08-23T10:34:19.400Z,60.44
2022-08-23T10:37:16.630Z,60.61
2022-08-23T10:39:51.593Z,61.03
2022-08-23T10:42:43.289Z,60.23
2022-08-23T10:45:27.183Z,61.04
2022-08-23T10:48:26.896Z,60.10
2022-08-23T10:51:01.275Z,58.59
2022-08-23T10:53:37.561Z,58.75
2022-08-23T10:56:06.003Z,59.22
2022-08-23T10:58:52.282Z,56.95
2022-08-23T11:01:30.091Z,57.13
2022-08-23T11:04:03.005Z,57.60
2022-08-23T11:06:34.999Z,57.39
2022-08-23T11:09:28.055Z,57.25
2022-08-23T11:12:24.299Z,57.19
2022-08-23T11:14:59.525Z,56.91
2022-08-23T11:17:37.083Z,55.99
2022-08-23T11:20:10.372Z,55.03
2022-08-23T11:23:02.086Z,52.69
2022-08-23T11:25:28.482Z,51.46
2022-08-23T11:28:23.412Z,50.43
2022-08-23T11:30:57.720Z,51.05
2022-08-23T11:33:45.803Z,50.85
2022-08-23T11:36:12.800Z,51.13
2022-08-23T11:38:48.665Z,51.23
2022-08-23T11:41:19.163Z,51.61
2022-08-23T11:43:49.543Z,51.46
2022-08-23T11:46:28.354Z,50.27
2022-08-23T11:49:28.454Z,50.53
2022-08-23T11:52:23.380Z,51.89
2022-08-23T11:55:08.463Z,52.46
2022-08-23T11:57:54.506Z,52.46
2022-08-23T12:00:52.462Z,52.18
2022-08-23T12:03:37.038Z,51.41
2022-08-23T12:06:08.759Z,50.45
2022-08-23T12:08:38.166Z,50.19
2022-08-23T12:11:08.852Z,50.39
2022-08-23T12:13:46.370Z,49.98
2022-08-23T12:16:17.708Z,49.04
2022-08-23T12:18:47.540Z,49.92
2022-08-23T12:21:37.404Z,49.91
2022-08-23T12:24:16.337Z,49.72
2022-08-23T12:26:42.715Z,51.17
2022-08-23T12:29:19.247Z,50.22
2022-08-23T12:32:01.299Z,50.73
2022-08-23T12:34:43.250Z,50.79
2022-08-23T12:37:22.250Z,51.18
2022-08-23T12:39:53.606Z,49.96
2022-08-23T12:42:27.585Z,50.20
2022-08-23T12:45:17.209Z,51.65
2022-08-23T12:47:56.681Z,51.40
2022-08-23T12:50:33.440Z,52.01
2022-08-23T12:53:09.730Z,51.74
2022-08-23T12:55:40.758Z,52.50
2022-08-23T12:58:08.203Z,52.00
2022-08-23T13:00:43.404Z,52.25
2022-08-23T13:03:18.955Z,52.89
2022-08-23T13:05:55.215Z,52.25
2022-08-23T13:08:47.680Z,52.62
2022-08-23T13:11:18.345Z,52.76
2022-08-23T13:13:45.374Z,52.44
2022-08-23T13:16:42.894Z,51.96
2022-08-23T13:19:17.684Z,52.29
2022-08-23T13:21:44.832Z,51.96
2022-08-23T13:25:24.523Z,51.55
2022-08-23T13:27:44.937Z,52.79
2022-08-23T13:30:11.417Z,52.63
2022-08-23T13:32:46.745Z,51.15
2022-08-23T13:35:31.435Z,49.78
2022-08-23T13:38:08.402Z,50.52
2022-08-23T13:40:52.721Z,50.20
2022-08-23T13:43:39.666Z,51.21
2022-08-23T13:46:26.454Z,51.51
2022-08-23T13:49:09.834Z,51.60
2022-08-23T13:51:39.464Z,51.82
2022-08-23T13:54:15.210Z,53.74
2022-08-23T13:56:48.197Z,50.15
2022-08-23T13:59:41.119Z,49.13
2022-08-23T14:02:14.267Z,48.67
2022-08-23T14:04:41.911Z,48.51
2022-08-23T14:07:09.858Z,47.78
2022-08-23T14:09:38.200Z,48.26
2022-08-23T14:12:15.111Z,49.37
2022-08-23T14:14:43.511Z,49.66
2022-08-23T14:17:13.688Z,51.90
2022-08-23T14:22:33.284Z,52.35
2022-08-23T14:24:59.732Z,51.34
2022-08-23T14:27:26.226Z,50.78
2022-08-23T14:29:52.685Z,51.49
2022-08-23T14:32:19.104Z,51.84
2022-08-23T14:34:45.560Z,51.82
2022-08-23T14:39:58.842Z,52.49
2022-08-23T14:42:25.619Z,53.48
2022-08-23T14:44:52.100Z,52.55
2022-08-23T14:47:19.093Z,52.33
2022-08-23T14:49:45.575Z,51.55
2022-08-23T14:52:14.333Z,51.90
2022-08-23T14:54:41.185Z,51.61
2022-08-23T14:57:07.606Z,51.15
2022-08-23T14:59:34.292Z,50.39
2022-08-23T15:02:01.215Z,51.24
2022-08-23T15:04:34.594Z,51.38
2022-08-23T15:07:18.624Z,52.19
2022-08-23T15:09:56.766Z,52.22
2022-08-23T15:15:14.696Z,52.06
2022-08-23T15:17:49.219Z,52.21
2022-08-23T15:20:15.732Z,52.53
2022-08-23T15:22:44.947Z,52.31
2022-08-23T15:25:13.018Z,51.62
2022-08-23T15:27:39.586Z,51.38
2022-08-23T15:30:07.403Z,51.77
2022-08-23T15:32:33.831Z,52.39
2022-08-23T15:35:00.422Z,53.16
2022-08-23T15:37:27.190Z,53.46
2022-08-23T15:39:53.685Z,53.43
2022-08-23T15:42:20.715Z,53.85
2022-08-23T15:44:48.126Z,53.75
2022-08-23T15:47:21.710Z,53.69
2022-08-23T15:49:48.717Z,54.29
2022-08-23T15:52:15.247Z,53.73
2022-08-23T15:54:42.028Z,53.91
2022-08-23T15:57:08.726Z,53.71
2022-08-23T15:59:37.576Z,54.16
2022-08-23T16:02:04.660Z,54.04
2022-08-23T16:04:35.952Z,53.75
2022-08-23T16:07:05.544Z,53.17
2022-08-23T16:09:34.098Z,53.88
2022-08-23T16:12:01.014Z,53.75
2022-08-23T16:14:27.503Z,53.21
2022-08-23T16:16:56.854Z,53.08
2022-08-23T16:19:23.387Z,53.27
2022-08-23T16:21:52.933Z,53.00
2022-08-23T16:24:20.415Z,53.23
2022-08-23T16:26:51.710Z,52.63
2022-08-23T16:29:19.858Z,52.35
2022-08-23T16:31:47.281Z,52.65
2022-08-23T16:34:18.189Z,52.98
2022-08-23T16:36:47.817Z,52.60
2022-08-23T16:39:16.252Z,52.05
2022-08-23T16:41:42.923Z,51.77
2022-08-23T16:44:09.561Z,52.77
2022-08-23T16:46:36.534Z,52.25
2022-08-23T16:49:03.058Z,52.19
2022-08-23T16:51:29.566Z,52.53
2022-08-23T16:54:02.304Z,52.10
2022-08-23T16:56:33.983Z,52.18
2022-08-23T16:59:01.887Z,52.08
2022-08-23T17:01:29.399Z,51.95
2022-08-23T17:03:56.151Z,52.45
2022-08-23T17:06:22.803Z,52.78
2022-08-23T17:08:49.362Z,52.76
2022-08-23T17:11:18.917Z,54.16
2022-08-23T17:13:45.573Z,55.12
2022-08-23T17:16:12.041Z,56.60
2022-08-23T17:18:38.864Z,57.68
2022-08-23T17:21:05.764Z,57.36
2022-08-23T17:23:32.436Z,57.54
2022-08-23T17:25:59.611Z,57.79
2022-08-23T17:28:26.058Z,57.98
2022-08-23T17:30:52.656Z,57.65
2022-08-23T17:33:19.400Z,57.89
2022-08-23T17:35:46.397Z,57.66
2022-08-23T17:38:13.340Z,57.52
2022-08-23T17:40:41.170Z,57.86
2022-08-23T17:43:08.247Z,57.78
2022-08-23T17:45:46.430Z,58.81
2022-08-23T17:48:14.605Z,58.89
2022-08-23T17:50:43.362Z,58.58
2022-08-23T17:53:11.279Z,58.63
2022-08-23T17:55:39.215Z,58.40
2022-08-23T17:58:07.865Z,59.13
2022-08-23T18:00:36.586Z,59.17
2022-08-23T18:03:04.083Z,59.81
2022-08-23T18:05:33.242Z,60.50
2022-08-23T18:08:00.328Z,60.82
2022-08-23T18:10:27.017Z,62.11
2022-08-23T18:12:53.450Z,62.42
2022-08-23T18:15:20.392Z,63.00
2022-08-23T18:17:46.903Z,63.40
2022-08-23T18:20:13.765Z,63.38
2022-08-23T18:22:40.619Z,63.04
2022-08-23T18:25:09.647Z,63.54
2022-08-23T18:27:55.067Z,63.25
2022-08-23T18:30:21.569Z,62.94
2022-08-23T18:32:48.010Z,63.95
2022-08-23T18:35:14.990Z,64.30
2022-08-23T18:37:41.901Z,64.64
2022-08-23T18:40:10.140Z,65.13
2022-08-23T18:42:36.797Z,65.62
2022-08-23T18:45:04.494Z,66.18
2022-08-23T18:47:30.922Z,66.44
2022-08-23T18:49:57.533Z,66.75
2022-08-23T18:52:24.040Z,66.77
2022-08-23T18:54:50.488Z,67.99
2022-08-23T18:57:17.759Z,69.58
2022-08-23T18:59:44.439Z,70.42
2022-08-23T19:02:11.356Z,70.69
2022-08-23T19:04:37.913Z,70.59
2022-08-23T19:07:05.081Z,71.37
2022-08-23T19:09:31.546Z,71.54
2022-08-23T19:12:00.718Z,71.70
2022-08-23T19:14:28.276Z,72.14
2022-08-23T19:16:55.257Z,72.55
2022-08-23T19:19:23.037Z,72.77
2022-08-23T19:21:50.250Z,72.92
2022-08-23T19:24:17.083Z,72.79
2022-08-23T19:26:47.327Z,73.31
2022-08-23T19:29:16.066Z,73.72
2022-08-23T19:31:46.523Z,74.21
2022-08-23T19:34:17.474Z,74.71
2022-08-23T19:36:49.066Z,75.22
2022-08-23T19:39:18.779Z,75.36
2022-08-23T19:41:48.338Z,76.04
2022-08-23T19:44:15.565Z,75.96
2022-08-23T19:46:44.638Z,76.10
2022-08-23T19:49:13.146Z,77.33
2022-08-23T19:51:39.903Z,76.68
2022-08-23T19:54:11.507Z,77.78
2022-08-23T19:56:48.284Z,78.47
2022-08-23T19:59:20.852Z,78.73
2022-08-23T20:01:49.184Z,78.86
2022-08-23T20:04:16.059Z,78.86
2022-08-23T20:06:42.655Z,79.27
2022-08-23T20:09:09.399Z,79.45
2022-08-23T20:11:37.111Z,79.82
2022-08-23T20:14:05.357Z,80.04
2022-08-23T20:16:32.717Z,80.47
2022-08-23T20:19:00.322Z,80.26
2022-08-23T20:21:27.550Z,81.11
2022-08-23T20:24:01.597Z,81.46
2022-08-23T20:26:40.974Z,81.15
2022-08-23T20:29:21.803Z,80.32
2022-08-23T20:31:57.160Z,81.37
2022-08-23T20:34:27.144Z,82.71
2022-08-23T20:36:56.195Z,83.28
2022-08-23T20:39:24.408Z,83.44
2022-08-23T20:41:52.383Z,83.38
2022-08-23T20:44:23.754Z,84.29
2022-08-23T20:46:54.019Z,85.28
2022-08-23T20:49:22.936Z,85.39
2022-08-23T20:51:50.397Z,85.76
2022-08-23T20:54:17.125Z,85.17
2022-08-23T20:56:43.832Z,85.47
2022-08-23T20:59:10.371Z,86.11
2022-08-23T21:01:36.820Z,86.22
2022-08-23T21:04:03.642Z,86.57
2022-08-23T21:06:45.772Z,87.06
2022-08-23T21:09:16.914Z,87.15
2022-08-23T21:11:44.010Z,88.13
2022-08-23T21:14:10.470Z,88.52
2022-08-23T21:16:37.088Z,89.00
2022-08-23T21:19:03.843Z,88.75
2022-08-23T21:21:30.612Z,89.25
2022-08-23T21:23:57.497Z,88.83
2022-08-23T21:26:24.880Z,88.71
2022-08-23T21:28:52.285Z,89.63
2022-08-23T21:31:22.514Z,88.97
2022-08-23T21:33:49.012Z,89.78
2022-08-23T21:36:16.936Z,89.64
2022-08-23T21:38:43.531Z,89.79
2022-08-23T21:41:44.738Z,90.51
2022-08-23T21:44:13.914Z,90.55
2022-08-23T21:46:41.471Z,89.71
2022-08-23T21:49:08.351Z,91.35
2022-08-23T21:51:38.860Z,91.37
2022-08-23T21:54:07.570Z,92.20
2022-08-23T21:56:34.026Z,91.48
2022-08-23T21:59:02.203Z,91.23
2022-08-23T22:01:31.291Z,93.01
2022-08-23T22:03:58.635Z,92.97
2022-08-23T22:06:25.128Z,93.32
2022-08-23T22:08:51.811Z,93.50
2022-08-23T22:11:18.731Z,92.58
2022-08-23T22:13:45.338Z,93.67
2022-08-23T22:16:12.078Z,93.94
2022-08-23T22:18:39.072Z,94.50
2022-08-23T22:21:06.969Z,93.65
2022-08-23T22:23:36.395Z,94.23
2022-08-23T22:26:05.850Z,94.58
2022-08-23T22:28:33.165Z,94.89
2022-08-23T22:31:01.417Z,94.00
2022-08-23T22:33:28.336Z,95.11
2022-08-23T22:35:55.117Z,93.95
2022-08-23T22:38:21.591Z,94.82
2022-08-23T22:40:49.736Z,95.16
2022-08-23T22:43:17.287Z,95.42
2022-08-23T22:45:55.453Z,94.22
2022-08-23T22:48:23.015Z,95.96
2022-08-23T22:50:49.765Z,96.21
2022-08-23T22:53:17.914Z,96.96
2022-08-23T22:55:50.400Z,96.20
2022-08-23T22:58:16.830Z,96.41
2022-08-23T23:00:43.876Z,96.44
2022-08-23T23:03:10.591Z,96.88
2022-08-23T23:05:37.229Z,96.66
2022-08-23T23:08:22.736Z,98.55
2022-08-23T23:10:49.304Z,98.79
2022-08-23T23:13:15.954Z,99.19
2022-08-23T23:15:42.394Z,98.98
2022-08-23T23:18:08.866Z,98.68
2022-08-23T23:20:38.980Z,97.80
2022-08-23T23:23:10.573Z,97.19
2022-08-23T23:25:39.856Z,96.79
2022-08-23T23:28:06.512Z,97.30
2022-08-23T23:30:34.294Z,96.65
2022-08-23T23:33:00.878Z,97.91
2022-08-23T23:35:28.306Z,98.01
2022-08-23T23:37:55.976Z,99.04
2022-08-23T23:40:23.517Z,99.22
2022-08-23T23:42:50.113Z,98.63
2022-08-23T23:45:17.160Z,98.93
2022-08-23T23:47:43.869Z,99.98
2022-08-23T23:50:11.201Z,100.00
2022-08-23T23:52:38.313Z,100.00
2022-08-23T23:55:07.475Z,100.00
2022-08-23T23:57:33.894Z,100.00
